sensor_id;sensor_type;location;lat;lon;timestamp;P1;durP1;ratioP1;P2;durP2;ratioP2
17854;SDS011;9053;53.358;6.382;2022-11-15T00:01:05;22.60;;;16.07;;
17854;SDS011;9053;53.358;6.382;2022-11-15T00:03:36;22.00;;;14.07;;
17854;SDS011;9053;53.358;6.382;2022-11-15T00:06:06;21.40;;;15.23;;
17854;SDS011;9053;53.358;6.382;2022-11-15T00:08:36;20.93;;;14.30;;
17854;SDS011;9053;53.358;6.382;2022-11-15T00:11:10;22.17;;;15.17;;
17854;SDS011;9053;53.358;6.382;2022-11-15T00:13:41;20.40;;;13.73;;
17854;SDS011;9053;53.358;6.382;2022-11-15T00:16:10;22.83;;;15.07;;
17854;SDS011;9053;53.358;6.382;2022-11-15T00:18:40;20.47;;;14.93;;
17854;SDS011;9053;53.358;6.382;2022-11-15T00:21:16;23.33;;;16.13;;
17854;SDS011;9053;53.358;6.382;2022-11-15T00:23:46;22.07;;;14.97;;
17854;SDS011;9053;53.358;6.382;2022-11-15T00:26:19;21.50;;;14.97;;
17854;SDS011;9053;53.358;6.382;2022-11-15T00:28:48;21.60;;;14.63;;
17854;SDS011;9053;53.358;6.382;2022-11-15T00:31:21;21.20;;;14.77;;
17854;SDS011;9053;53.358;6.382;2022-11-15T00:33:51;21.10;;;14.87;;
17854;SDS011;9053;53.358;6.382;2022-11-15T00:36:20;21.57;;;15.10;;
17854;SDS011;9053;53.358;6.382;2022-11-15T00:38:50;22.17;;;14.73;;
17854;SDS011;9053;53.358;6.382;2022-11-15T00:41:22;21.50;;;14.60;;
17854;SDS011;9053;53.358;6.382;2022-11-15T00:43:52;18.80;;;13.53;;
17854;SDS011;9053;53.358;6.382;2022-11-15T00:46:22;21.93;;;16.07;;
17854;SDS011;9053;53.358;6.382;2022-11-15T00:48:52;22.47;;;15.17;;
17854;SDS011;9053;53.358;6.382;2022-11-15T00:51:21;20.33;;;14.30;;
17854;SDS011;9053;53.358;6.382;2022-11-15T00:53:51;21.00;;;14.40;;
17854;SDS011;9053;53.358;6.382;2022-11-15T00:56:25;20.63;;;14.00;;
17854;SDS011;9053;53.358;6.382;2022-11-15T00:58:54;21.27;;;14.73;;
17854;SDS011;9053;53.358;6.382;2022-11-15T01:01:24;20.63;;;14.03;;
17854;SDS011;9053;53.358;6.382;2022-11-15T01:03:54;20.23;;;13.83;;
17854;SDS011;9053;53.358;6.382;2022-11-15T01:06:27;23.20;;;15.90;;
17854;SDS011;9053;53.358;6.382;2022-11-15T01:08:56;21.40;;;15.30;;
17854;SDS011;9053;53.358;6.382;2022-11-15T01:11:29;18.67;;;13.93;;
17854;SDS011;9053;53.358;6.382;2022-11-15T01:13:58;21.90;;;15.63;;
17854;SDS011;9053;53.358;6.382;2022-11-15T01:16:28;20.87;;;15.87;;
17854;SDS011;9053;53.358;6.382;2022-11-15T01:18:59;22.43;;;15.83;;
17854;SDS011;9053;53.358;6.382;2022-11-15T01:21:29;21.37;;;14.43;;
17854;SDS011;9053;53.358;6.382;2022-11-15T01:23:59;19.83;;;13.97;;
17854;SDS011;9053;53.358;6.382;2022-11-15T01:26:31;23.40;;;14.63;;
17854;SDS011;9053;53.358;6.382;2022-11-15T01:29:01;21.83;;;15.20;;
17854;SDS011;9053;53.358;6.382;2022-11-15T01:31:31;23.83;;;16.07;;
17854;SDS011;9053;53.358;6.382;2022-11-15T01:34:00;21.17;;;15.17;;
17854;SDS011;9053;53.358;6.382;2022-11-15T01:36:30;21.43;;;16.10;;
17854;SDS011;9053;53.358;6.382;2022-11-15T01:39:00;21.13;;;15.97;;
17854;SDS011;9053;53.358;6.382;2022-11-15T01:41:32;22.67;;;15.13;;
17854;SDS011;9053;53.358;6.382;2022-11-15T01:47:03;18.77;;;14.03;;
17854;SDS011;9053;53.358;6.382;2022-11-15T01:49:37;22.57;;;15.73;;
17854;SDS011;9053;53.358;6.382;2022-11-15T01:52:13;23.03;;;16.33;;
17854;SDS011;9053;53.358;6.382;2022-11-15T01:54:48;24.80;;;17.43;;
17854;SDS011;9053;53.358;6.382;2022-11-15T01:57:25;21.23;;;16.20;;
17854;SDS011;9053;53.358;6.382;2022-11-15T01:59:55;23.60;;;17.00;;
17854;SDS011;9053;53.358;6.382;2022-11-15T02:02:29;25.23;;;18.33;;
17854;SDS011;9053;53.358;6.382;2022-11-15T02:05:00;29.13;;;19.20;;
17854;SDS011;9053;53.358;6.382;2022-11-15T02:07:31;26.53;;;18.43;;
17854;SDS011;9053;53.358;6.382;2022-11-15T02:10:05;27.97;;;20.17;;
17854;SDS011;9053;53.358;6.382;2022-11-15T02:12:40;27.07;;;19.40;;
17854;SDS011;9053;53.358;6.382;2022-11-15T02:15:10;25.90;;;18.30;;
17854;SDS011;9053;53.358;6.382;2022-11-15T02:17:44;26.93;;;19.20;;
17854;SDS011;9053;53.358;6.382;2022-11-15T02:20:36;28.40;;;19.23;;
17854;SDS011;9053;53.358;6.382;2022-11-15T02:26:29;24.40;;;17.57;;
17854;SDS011;9053;53.358;6.382;2022-11-15T02:29:25;26.23;;;17.73;;
17854;SDS011;9053;53.358;6.382;2022-11-15T02:32:07;26.57;;;18.03;;
17854;SDS011;9053;53.358;6.382;2022-11-15T02:34:50;27.97;;;19.03;;
17854;SDS011;9053;53.358;6.382;2022-11-15T02:37:26;26.20;;;17.60;;
17854;SDS011;9053;53.358;6.382;2022-11-15T02:40:03;29.27;;;17.90;;
17854;SDS011;9053;53.358;6.382;2022-11-15T02:42:40;26.90;;;18.00;;
17854;SDS011;9053;53.358;6.382;2022-11-15T02:45:35;24.43;;;16.60;;
17854;SDS011;9053;53.358;6.382;2022-11-15T02:48:11;23.67;;;15.63;;
17854;SDS011;9053;53.358;6.382;2022-11-15T02:50:42;25.33;;;16.10;;
17854;SDS011;9053;53.358;6.382;2022-11-15T02:53:13;25.37;;;17.43;;
17854;SDS011;9053;53.358;6.382;2022-11-15T02:55:44;26.33;;;17.20;;
17854;SDS011;9053;53.358;6.382;2022-11-15T02:58:22;26.37;;;17.30;;
17854;SDS011;9053;53.358;6.382;2022-11-15T03:01:11;22.83;;;15.40;;
17854;SDS011;9053;53.358;6.382;2022-11-15T03:03:57;21.03;;;14.33;;
17854;SDS011;9053;53.358;6.382;2022-11-15T03:06:34;23.00;;;14.83;;
17854;SDS011;9053;53.358;6.382;2022-11-15T03:09:13;22.50;;;15.00;;
17854;SDS011;9053;53.358;6.382;2022-11-15T03:11:55;22.83;;;14.93;;
17854;SDS011;9053;53.358;6.382;2022-11-15T03:14:29;22.40;;;14.77;;
17854;SDS011;9053;53.358;6.382;2022-11-15T03:17:04;26.27;;;16.20;;
17854;SDS011;9053;53.358;6.382;2022-11-15T03:19:45;25.03;;;16.27;;
17854;SDS011;9053;53.358;6.382;2022-11-15T03:22:17;23.07;;;15.50;;
17854;SDS011;9053;53.358;6.382;2022-11-15T03:24:50;26.67;;;16.93;;
17854;SDS011;9053;53.358;6.382;2022-11-15T03:27:24;27.60;;;16.70;;
17854;SDS011;9053;53.358;6.382;2022-11-15T03:30:02;26.90;;;16.23;;
17854;SDS011;9053;53.358;6.382;2022-11-15T03:32:35;23.83;;;15.13;;
17854;SDS011;9053;53.358;6.382;2022-11-15T03:35:12;25.07;;;15.70;;
17854;SDS011;9053;53.358;6.382;2022-11-15T03:37:48;26.53;;;15.27;;
17854;SDS011;9053;53.358;6.382;2022-11-15T03:40:23;26.60;;;16.37;;
17854;SDS011;9053;53.358;6.382;2022-11-15T03:42:59;24.40;;;16.10;;
17854;SDS011;9053;53.358;6.382;2022-11-15T03:45:39;24.93;;;15.07;;
17854;SDS011;9053;53.358;6.382;2022-11-15T03:48:14;25.23;;;15.63;;
17854;SDS011;9053;53.358;6.382;2022-11-15T03:50:50;24.83;;;15.27;;
17854;SDS011;9053;53.358;6.382;2022-11-15T03:53:21;25.53;;;15.70;;
17854;SDS011;9053;53.358;6.382;2022-11-15T03:55:51;26.37;;;16.83;;
17854;SDS011;9053;53.358;6.382;2022-11-15T03:58:22;25.87;;;17.10;;
17854;SDS011;9053;53.358;6.382;2022-11-15T04:00:53;24.57;;;15.73;;
17854;SDS011;9053;53.358;6.382;2022-11-15T04:03:23;28.67;;;15.67;;
17854;SDS011;9053;53.358;6.382;2022-11-15T04:05:55;23.53;;;14.97;;
17854;SDS011;9053;53.358;6.382;2022-11-15T04:08:25;26.37;;;16.27;;
17854;SDS011;9053;53.358;6.382;2022-11-15T04:10:54;27.63;;;16.37;;
17854;SDS011;9053;53.358;6.382;2022-11-15T04:13:27;27.17;;;16.53;;
17854;SDS011;9053;53.358;6.382;2022-11-15T04:15:57;23.93;;;14.87;;
17854;SDS011;9053;53.358;6.382;2022-11-15T04:18:27;27.00;;;16.27;;
17854;SDS011;9053;53.358;6.382;2022-11-15T04:21:00;29.77;;;16.67;;
17854;SDS011;9053;53.358;6.382;2022-11-15T04:23:42;25.20;;;15.50;;
17854;SDS011;9053;53.358;6.382;2022-11-15T04:26:26;26.57;;;15.10;;
17854;SDS011;9053;53.358;6.382;2022-11-15T04:28:56;24.73;;;15.93;;
17854;SDS011;9053;53.358;6.382;2022-11-15T04:31:38;28.10;;;16.17;;
17854;SDS011;9053;53.358;6.382;2022-11-15T04:34:08;27.17;;;15.10;;
17854;SDS011;9053;53.358;6.382;2022-11-15T04:36:40;22.97;;;14.40;;
17854;SDS011;9053;53.358;6.382;2022-11-15T04:39:23;26.63;;;15.83;;
17854;SDS011;9053;53.358;6.382;2022-11-15T04:41:53;23.53;;;14.60;;
17854;SDS011;9053;53.358;6.382;2022-11-15T04:44:23;28.83;;;16.60;;
17854;SDS011;9053;53.358;6.382;2022-11-15T04:46:53;28.93;;;16.77;;
17854;SDS011;9053;53.358;6.382;2022-11-15T04:49:23;27.47;;;15.83;;
17854;SDS011;9053;53.358;6.382;2022-11-15T04:51:55;28.33;;;16.87;;
17854;SDS011;9053;53.358;6.382;2022-11-15T04:54:25;27.33;;;16.37;;
17854;SDS011;9053;53.358;6.382;2022-11-15T04:56:55;25.30;;;14.93;;
17854;SDS011;9053;53.358;6.382;2022-11-15T04:59:25;25.87;;;15.30;;
17854;SDS011;9053;53.358;6.382;2022-11-15T05:01:55;27.27;;;15.93;;
17854;SDS011;9053;53.358;6.382;2022-11-15T05:04:25;27.73;;;16.00;;
17854;SDS011;9053;53.358;6.382;2022-11-15T05:06:55;29.63;;;15.93;;
17854;SDS011;9053;53.358;6.382;2022-11-15T05:09:25;31.97;;;16.40;;
17854;SDS011;9053;53.358;6.382;2022-11-15T05:11:55;27.93;;;15.90;;
17854;SDS011;9053;53.358;6.382;2022-11-15T05:14:25;26.53;;;16.30;;
17854;SDS011;9053;53.358;6.382;2022-11-15T05:16:55;25.77;;;16.07;;
17854;SDS011;9053;53.358;6.382;2022-11-15T05:19:25;26.63;;;15.57;;
17854;SDS011;9053;53.358;6.382;2022-11-15T05:21:57;30.43;;;17.43;;
17854;SDS011;9053;53.358;6.382;2022-11-15T05:24:28;24.87;;;15.10;;
17854;SDS011;9053;53.358;6.382;2022-11-15T05:26:58;25.83;;;15.13;;
17854;SDS011;9053;53.358;6.382;2022-11-15T05:29:28;28.17;;;15.97;;
17854;SDS011;9053;53.358;6.382;2022-11-15T05:31:58;30.30;;;16.40;;
17854;SDS011;9053;53.358;6.382;2022-11-15T05:34:28;27.93;;;15.33;;
17854;SDS011;9053;53.358;6.382;2022-11-15T05:37:01;29.60;;;16.03;;
17854;SDS011;9053;53.358;6.382;2022-11-15T05:39:30;27.77;;;16.50;;
17854;SDS011;9053;53.358;6.382;2022-11-15T05:42:01;31.10;;;17.07;;
17854;SDS011;9053;53.358;6.382;2022-11-15T05:44:36;31.30;;;17.00;;
17854;SDS011;9053;53.358;6.382;2022-11-15T05:47:10;29.50;;;17.03;;
17854;SDS011;9053;53.358;6.382;2022-11-15T05:49:45;28.73;;;16.03;;
17854;SDS011;9053;53.358;6.382;2022-11-15T05:52:21;30.27;;;16.93;;
17854;SDS011;9053;53.358;6.382;2022-11-15T05:54:55;31.07;;;17.30;;
17854;SDS011;9053;53.358;6.382;2022-11-15T05:57:25;31.63;;;18.27;;
17854;SDS011;9053;53.358;6.382;2022-11-15T05:59:55;31.37;;;17.27;;
17854;SDS011;9053;53.358;6.382;2022-11-15T06:02:25;31.07;;;17.10;;
17854;SDS011;9053;53.358;6.382;2022-11-15T06:04:55;35.10;;;19.77;;
17854;SDS011;9053;53.358;6.382;2022-11-15T06:07:27;37.13;;;18.60;;
17854;SDS011;9053;53.358;6.382;2022-11-15T06:09:58;35.00;;;18.93;;
17854;SDS011;9053;53.358;6.382;2022-11-15T06:12:28;34.23;;;18.03;;
17854;SDS011;9053;53.358;6.382;2022-11-15T06:14:58;42.33;;;21.03;;
17854;SDS011;9053;53.358;6.382;2022-11-15T06:17:27;40.13;;;20.60;;
17854;SDS011;9053;53.358;6.382;2022-11-15T06:19:58;37.57;;;20.80;;
17854;SDS011;9053;53.358;6.382;2022-11-15T06:22:30;41.27;;;20.90;;
17854;SDS011;9053;53.358;6.382;2022-11-15T06:25:00;36.30;;;19.57;;
17854;SDS011;9053;53.358;6.382;2022-11-15T06:27:31;43.53;;;21.30;;
17854;SDS011;9053;53.358;6.382;2022-11-15T06:30:00;38.77;;;19.67;;
17854;SDS011;9053;53.358;6.382;2022-11-15T06:32:30;39.03;;;20.67;;
17854;SDS011;9053;53.358;6.382;2022-11-15T06:35:00;39.23;;;20.33;;
17854;SDS011;9053;53.358;6.382;2022-11-15T06:37:33;41.67;;;21.13;;
17854;SDS011;9053;53.358;6.382;2022-11-15T06:40:04;39.67;;;21.33;;
17854;SDS011;9053;53.358;6.382;2022-11-15T06:42:34;41.13;;;22.80;;
17854;SDS011;9053;53.358;6.382;2022-11-15T06:45:05;45.20;;;22.97;;
17854;SDS011;9053;53.358;6.382;2022-11-15T06:47:35;38.30;;;21.33;;
17854;SDS011;9053;53.358;6.382;2022-11-15T06:50:05;41.40;;;22.97;;
17854;SDS011;9053;53.358;6.382;2022-11-15T06:52:38;38.23;;;20.80;;
17854;SDS011;9053;53.358;6.382;2022-11-15T06:55:08;37.97;;;20.77;;
17854;SDS011;9053;53.358;6.382;2022-11-15T06:57:43;41.63;;;22.53;;
17854;SDS011;9053;53.358;6.382;2022-11-15T07:00:16;39.63;;;20.63;;
17854;SDS011;9053;53.358;6.382;2022-11-15T07:02:47;41.10;;;22.00;;
17854;SDS011;9053;53.358;6.382;2022-11-15T07:05:17;50.13;;;23.60;;
17854;SDS011;9053;53.358;6.382;2022-11-15T07:07:53;40.57;;;21.50;;
17854;SDS011;9053;53.358;6.382;2022-11-15T07:10:24;38.77;;;21.13;;
17854;SDS011;9053;53.358;6.382;2022-11-15T07:12:55;41.23;;;22.87;;
17854;SDS011;9053;53.358;6.382;2022-11-15T07:15:25;46.87;;;22.70;;
17854;SDS011;9053;53.358;6.382;2022-11-15T07:17:55;37.77;;;21.27;;
17854;SDS011;9053;53.358;6.382;2022-11-15T07:20:29;38.70;;;21.13;;
17854;SDS011;9053;53.358;6.382;2022-11-15T07:23:02;35.17;;;20.07;;
17854;SDS011;9053;53.358;6.382;2022-11-15T07:25:33;42.03;;;21.73;;
17854;SDS011;9053;53.358;6.382;2022-11-15T07:28:03;36.53;;;20.60;;
17854;SDS011;9053;53.358;6.382;2022-11-15T07:30:33;35.00;;;21.47;;
17854;SDS011;9053;53.358;6.382;2022-11-15T07:33:10;41.87;;;22.43;;
17854;SDS011;9053;53.358;6.382;2022-11-15T07:35:40;39.77;;;21.63;;
17854;SDS011;9053;53.358;6.382;2022-11-15T07:38:15;40.43;;;22.33;;
17854;SDS011;9053;53.358;6.382;2022-11-15T07:40:47;35.87;;;21.67;;
17854;SDS011;9053;53.358;6.382;2022-11-15T07:43:24;32.20;;;20.70;;
17854;SDS011;9053;53.358;6.382;2022-11-15T07:45:56;37.97;;;21.03;;
17854;SDS011;9053;53.358;6.382;2022-11-15T07:48:26;38.13;;;20.47;;
17854;SDS011;9053;53.358;6.382;2022-11-15T07:51:10;40.00;;;22.33;;
17854;SDS011;9053;53.358;6.382;2022-11-15T07:53:44;36.37;;;20.27;;
17854;SDS011;9053;53.358;6.382;2022-11-15T07:56:13;40.70;;;21.57;;
17854;SDS011;9053;53.358;6.382;2022-11-15T07:58:45;35.60;;;18.97;;
17854;SDS011;9053;53.358;6.382;2022-11-15T08:01:16;32.23;;;19.90;;
17854;SDS011;9053;53.358;6.382;2022-11-15T08:03:46;37.40;;;21.97;;
17854;SDS011;9053;53.358;6.382;2022-11-15T08:06:16;37.57;;;21.43;;
17854;SDS011;9053;53.358;6.382;2022-11-15T08:08:49;38.43;;;20.73;;
17854;SDS011;9053;53.358;6.382;2022-11-15T08:11:18;32.33;;;19.47;;
17854;SDS011;9053;53.358;6.382;2022-11-15T08:13:48;28.83;;;17.33;;
17854;SDS011;9053;53.358;6.382;2022-11-15T08:16:18;32.10;;;16.40;;
17854;SDS011;9053;53.358;6.382;2022-11-15T08:18:48;26.47;;;16.90;;
17854;SDS011;9053;53.358;6.382;2022-11-15T08:21:18;34.57;;;20.97;;
17854;SDS011;9053;53.358;6.382;2022-11-15T08:23:51;31.23;;;18.97;;
17854;SDS011;9053;53.358;6.382;2022-11-15T08:26:21;28.67;;;17.17;;
17854;SDS011;9053;53.358;6.382;2022-11-15T08:28:51;36.17;;;19.97;;
17854;SDS011;9053;53.358;6.382;2022-11-15T08:31:21;30.10;;;18.97;;
17854;SDS011;9053;53.358;6.382;2022-11-15T08:33:51;28.43;;;18.87;;
17854;SDS011;9053;53.358;6.382;2022-11-15T08:36:20;30.10;;;19.23;;
17854;SDS011;9053;53.358;6.382;2022-11-15T08:38:53;30.90;;;19.30;;
17854;SDS011;9053;53.358;6.382;2022-11-15T08:41:24;29.87;;;18.97;;
17854;SDS011;9053;53.358;6.382;2022-11-15T08:43:57;34.37;;;20.43;;
17854;SDS011;9053;53.358;6.382;2022-11-15T08:46:27;31.93;;;19.07;;
17854;SDS011;9053;53.358;6.382;2022-11-15T08:48:57;28.03;;;18.10;;
17854;SDS011;9053;53.358;6.382;2022-11-15T08:51:27;28.17;;;19.37;;
17854;SDS011;9053;53.358;6.382;2022-11-15T08:53:59;32.03;;;20.23;;
17854;SDS011;9053;53.358;6.382;2022-11-15T08:56:29;38.03;;;21.87;;
17854;SDS011;9053;53.358;6.382;2022-11-15T08:58:59;30.70;;;19.70;;
17854;SDS011;9053;53.358;6.382;2022-11-15T09:01:28;29.03;;;18.03;;
17854;SDS011;9053;53.358;6.382;2022-11-15T09:03:59;31.73;;;20.43;;
17854;SDS011;9053;53.358;6.382;2022-11-15T09:06:30;32.07;;;20.63;;
17854;SDS011;9053;53.358;6.382;2022-11-15T09:09:02;26.17;;;18.27;;
17854;SDS011;9053;53.358;6.382;2022-11-15T09:11:32;32.08;;;19.92;;
17854;SDS011;9053;53.358;6.382;2022-11-15T09:14:02;30.90;;;19.33;;
17854;SDS011;9053;53.358;6.382;2022-11-15T09:16:32;24.77;;;17.40;;
17854;SDS011;9053;53.358;6.382;2022-11-15T09:19:02;29.77;;;19.53;;
17854;SDS011;9053;53.358;6.382;2022-11-15T09:21:37;25.90;;;18.45;;
17854;SDS011;9053;53.358;6.382;2022-11-15T09:24:09;27.37;;;17.63;;
17854;SDS011;9053;53.358;6.382;2022-11-15T09:26:39;24.53;;;17.27;;
17854;SDS011;9053;53.358;6.382;2022-11-15T09:29:09;25.63;;;18.17;;
17854;SDS011;9053;53.358;6.382;2022-11-15T09:31:39;26.47;;;17.13;;
17854;SDS011;9053;53.358;6.382;2022-11-15T09:34:09;27.53;;;18.27;;
17854;SDS011;9053;53.358;6.382;2022-11-15T09:36:38;25.00;;;17.67;;
17854;SDS011;9053;53.358;6.382;2022-11-15T09:39:11;30.07;;;17.77;;
17854;SDS011;9053;53.358;6.382;2022-11-15T09:44:38;25.27;;;17.00;;
17854;SDS011;9053;53.358;6.382;2022-11-15T09:50:32;25.30;;;16.83;;
17854;SDS011;9053;53.358;6.382;2022-11-15T09:53:08;25.50;;;17.87;;
17854;SDS011;9053;53.358;6.382;2022-11-15T09:55:46;28.15;;;17.83;;
17854;SDS011;9053;53.358;6.382;2022-11-15T09:58:25;24.60;;;17.47;;
17854;SDS011;9053;53.358;6.382;2022-11-15T10:01:02;23.40;;;16.30;;
17854;SDS011;9053;53.358;6.382;2022-11-15T10:03:38;22.05;;;15.23;;
17854;SDS011;9053;53.358;6.382;2022-11-15T10:06:14;24.77;;;16.05;;
17854;SDS011;9053;53.358;6.382;2022-11-15T10:08:52;21.90;;;14.97;;
17854;SDS011;9053;53.358;6.382;2022-11-15T10:11:30;24.58;;;17.17;;
17854;SDS011;9053;53.358;6.382;2022-11-15T10:14:04;23.17;;;16.10;;
17854;SDS011;9053;53.358;6.382;2022-11-15T10:19:33;21.33;;;15.15;;
17854;SDS011;9053;53.358;6.382;2022-11-15T10:22:12;20.77;;;15.23;;
17854;SDS011;9053;53.358;6.382;2022-11-15T10:24:57;23.63;;;16.23;;
17854;SDS011;9053;53.358;6.382;2022-11-15T10:27:43;22.83;;;15.63;;
17854;SDS011;9053;53.358;6.382;2022-11-15T10:30:30;22.10;;;15.35;;
17854;SDS011;9053;53.358;6.382;2022-11-15T10:38:55;20.08;;;14.23;;
17854;SDS011;9053;53.358;6.382;2022-11-15T10:41:30;20.15;;;14.65;;
17854;SDS011;9053;53.358;6.382;2022-11-15T10:50:02;23.15;;;14.50;;
17854;SDS011;9053;53.358;6.382;2022-11-15T10:52:35;19.03;;;13.27;;
17854;SDS011;9053;53.358;6.382;2022-11-15T10:55:20;18.70;;;14.13;;
17854;SDS011;9053;53.358;6.382;2022-11-15T10:57:54;17.83;;;12.90;;
17854;SDS011;9053;53.358;6.382;2022-11-15T11:00:29;19.50;;;14.03;;
17854;SDS011;9053;53.358;6.382;2022-11-15T11:03:02;20.10;;;13.50;;
17854;SDS011;9053;53.358;6.382;2022-11-15T11:05:34;16.33;;;12.70;;
17854;SDS011;9053;53.358;6.382;2022-11-15T11:08:19;16.20;;;12.13;;
17854;SDS011;9053;53.358;6.382;2022-11-15T11:10:52;19.13;;;13.23;;
17854;SDS011;9053;53.358;6.382;2022-11-15T11:13:29;16.50;;;12.57;;
17854;SDS011;9053;53.358;6.382;2022-11-15T11:16:08;19.92;;;13.55;;
17854;SDS011;9053;53.358;6.382;2022-11-15T11:18:49;17.70;;;12.00;;
17854;SDS011;9053;53.358;6.382;2022-11-15T11:21:26;15.80;;;12.15;;
17854;SDS011;9053;53.358;6.382;2022-11-15T11:24:07;15.98;;;12.02;;
17854;SDS011;9053;53.358;6.382;2022-11-15T11:26:46;17.77;;;11.73;;
17854;SDS011;9053;53.358;6.382;2022-11-15T11:29:28;15.40;;;11.63;;
17854;SDS011;9053;53.358;6.382;2022-11-15T11:32:25;16.20;;;11.02;;
17854;SDS011;9053;53.358;6.382;2022-11-15T11:35:08;15.63;;;10.82;;
17854;SDS011;9053;53.358;6.382;2022-11-15T11:37:45;14.35;;;9.73;;
17854;SDS011;9053;53.358;6.382;2022-11-15T11:40:20;17.63;;;12.25;;
17854;SDS011;9053;53.358;6.382;2022-11-15T11:43:04;14.10;;;10.87;;
17854;SDS011;9053;53.358;6.382;2022-11-15T11:48:43;12.68;;;9.65;;
17854;SDS011;9053;53.358;6.382;2022-11-15T11:51:17;12.57;;;9.98;;
17854;SDS011;9053;53.358;6.382;2022-11-15T11:53:52;10.32;;;8.80;;
17854;SDS011;9053;53.358;6.382;2022-11-15T11:56:27;11.88;;;9.18;;
17854;SDS011;9053;53.358;6.382;2022-11-15T11:59:02;11.70;;;8.73;;
17854;SDS011;9053;53.358;6.382;2022-11-15T12:01:37;12.55;;;9.50;;
17854;SDS011;9053;53.358;6.382;2022-11-15T12:04:14;12.73;;;8.97;;
17854;SDS011;9053;53.358;6.382;2022-11-15T12:06:49;9.77;;;7.72;;
17854;SDS011;9053;53.358;6.382;2022-11-15T12:09:30;10.98;;;8.88;;
17854;SDS011;9053;53.358;6.382;2022-11-15T12:12:07;9.40;;;7.78;;
17854;SDS011;9053;53.358;6.382;2022-11-15T12:14:45;12.07;;;8.38;;
17854;SDS011;9053;53.358;6.382;2022-11-15T12:17:20;10.15;;;8.32;;
17854;SDS011;9053;53.358;6.382;2022-11-15T12:19:57;11.27;;;7.78;;
17854;SDS011;9053;53.358;6.382;2022-11-15T12:22:36;11.50;;;8.20;;
17854;SDS011;9053;53.358;6.382;2022-11-15T12:25:14;8.68;;;6.82;;
17854;SDS011;9053;53.358;6.382;2022-11-15T12:27:48;11.18;;;7.30;;
17854;SDS011;9053;53.358;6.382;2022-11-15T12:30:23;8.35;;;6.70;;
17854;SDS011;9053;53.358;6.382;2022-11-15T12:32:57;9.23;;;6.32;;
17854;SDS011;9053;53.358;6.382;2022-11-15T12:35:37;9.27;;;6.47;;
17854;SDS011;9053;53.358;6.382;2022-11-15T12:38:09;7.63;;;6.10;;
17854;SDS011;9053;53.358;6.382;2022-11-15T12:41:11;6.72;;;5.07;;
17854;SDS011;9053;53.358;6.382;2022-11-15T12:43:42;7.00;;;4.75;;
17854;SDS011;9053;53.358;6.382;2022-11-15T12:46:18;6.75;;;4.38;;
17854;SDS011;9053;53.358;6.382;2022-11-15T12:48:55;6.60;;;4.05;;
17854;SDS011;9053;53.358;6.382;2022-11-15T12:57:29;3.85;;;2.83;;
17854;SDS011;9053;53.358;6.382;2022-11-15T13:00:05;4.82;;;3.17;;
17854;SDS011;9053;53.358;6.382;2022-11-15T13:05:59;5.90;;;3.83;;
17854;SDS011;9053;53.358;6.382;2022-11-15T13:08:47;4.38;;;3.33;;
17854;SDS011;9053;53.358;6.382;2022-11-15T13:20:08;4.70;;;2.42;;
17854;SDS011;9053;53.358;6.382;2022-11-15T13:22:48;2.80;;;2.30;;
17854;SDS011;9053;53.358;6.382;2022-11-15T13:25:40;2.72;;;1.92;;
17854;SDS011;9053;53.358;6.382;2022-11-15T13:28:28;4.18;;;2.10;;
17854;SDS011;9053;53.358;6.382;2022-11-15T13:31:03;4.75;;;2.35;;
17854;SDS011;9053;53.358;6.382;2022-11-15T13:33:48;3.38;;;2.70;;
17854;SDS011;9053;53.358;6.382;2022-11-15T13:36:22;3.83;;;2.63;;
17854;SDS011;9053;53.358;6.382;2022-11-15T13:38:56;7.95;;;2.58;;
17854;SDS011;9053;53.358;6.382;2022-11-15T13:41:28;3.03;;;2.33;;
17854;SDS011;9053;53.358;6.382;2022-11-15T13:43:59;2.90;;;2.40;;
17854;SDS011;9053;53.358;6.382;2022-11-15T13:46:31;5.23;;;2.57;;
17854;SDS011;9053;53.358;6.382;2022-11-15T13:49:03;3.45;;;2.30;;
17854;SDS011;9053;53.358;6.382;2022-11-15T13:51:37;3.17;;;2.45;;
17854;SDS011;9053;53.358;6.382;2022-11-15T13:54:14;3.15;;;2.55;;
17854;SDS011;9053;53.358;6.382;2022-11-15T13:56:48;3.13;;;2.33;;
17854;SDS011;9053;53.358;6.382;2022-11-15T13:59:24;2.38;;;2.03;;
17854;SDS011;9053;53.358;6.382;2022-11-15T14:01:56;3.55;;;2.50;;
17854;SDS011;9053;53.358;6.382;2022-11-15T14:04:28;3.08;;;2.35;;
17854;SDS011;9053;53.358;6.382;2022-11-15T14:07:03;3.60;;;2.27;;
17854;SDS011;9053;53.358;6.382;2022-11-15T14:09:34;2.90;;;2.20;;
17854;SDS011;9053;53.358;6.382;2022-11-15T14:12:23;4.10;;;2.40;;
17854;SDS011;9053;53.358;6.382;2022-11-15T14:14:55;3.63;;;2.63;;
17854;SDS011;9053;53.358;6.382;2022-11-15T14:17:33;2.90;;;2.63;;
17854;SDS011;9053;53.358;6.382;2022-11-15T14:20:25;3.95;;;3.53;;
17854;SDS011;9053;53.358;6.382;2022-11-15T14:23:00;6.30;;;3.60;;
17854;SDS011;9053;53.358;6.382;2022-11-15T14:25:33;5.60;;;3.47;;
17854;SDS011;9053;53.358;6.382;2022-11-15T14:28:08;4.22;;;2.90;;
17854;SDS011;9053;53.358;6.382;2022-11-15T14:30:42;3.80;;;2.87;;
17854;SDS011;9053;53.358;6.382;2022-11-15T14:33:20;5.73;;;3.77;;
17854;SDS011;9053;53.358;6.382;2022-11-15T14:35:52;4.53;;;3.60;;
17854;SDS011;9053;53.358;6.382;2022-11-15T14:38:25;6.93;;;4.25;;
17854;SDS011;9053;53.358;6.382;2022-11-15T14:40:56;4.23;;;3.53;;
17854;SDS011;9053;53.358;6.382;2022-11-15T14:43:26;3.97;;;2.72;;
17854;SDS011;9053;53.358;6.382;2022-11-15T14:45:56;5.10;;;3.38;;
17854;SDS011;9053;53.358;6.382;2022-11-15T14:48:25;5.65;;;3.30;;
17854;SDS011;9053;53.358;6.382;2022-11-15T14:50:56;5.20;;;3.83;;
17854;SDS011;9053;53.358;6.382;2022-11-15T14:53:28;3.20;;;2.90;;
17854;SDS011;9053;53.358;6.382;2022-11-15T14:55:58;3.95;;;3.00;;
17854;SDS011;9053;53.358;6.382;2022-11-15T14:58:28;4.03;;;3.63;;
17854;SDS011;9053;53.358;6.382;2022-11-15T15:00:58;4.85;;;3.15;;
17854;SDS011;9053;53.358;6.382;2022-11-15T15:03:28;4.18;;;3.13;;
17854;SDS011;9053;53.358;6.382;2022-11-15T15:05:58;4.95;;;2.83;;
17854;SDS011;9053;53.358;6.382;2022-11-15T15:08:30;5.27;;;3.30;;
17854;SDS011;9053;53.358;6.382;2022-11-15T15:11:00;4.57;;;2.97;;
17854;SDS011;9053;53.358;6.382;2022-11-15T15:13:30;4.43;;;2.80;;
17854;SDS011;9053;53.358;6.382;2022-11-15T15:16:00;3.90;;;3.05;;
17854;SDS011;9053;53.358;6.382;2022-11-15T15:18:30;4.20;;;2.78;;
17854;SDS011;9053;53.358;6.382;2022-11-15T15:21:00;4.97;;;3.00;;
17854;SDS011;9053;53.358;6.382;2022-11-15T15:23:36;2.67;;;2.13;;
17854;SDS011;9053;53.358;6.382;2022-11-15T15:26:06;3.17;;;2.77;;
17854;SDS011;9053;53.358;6.382;2022-11-15T15:28:36;4.55;;;2.60;;
17854;SDS011;9053;53.358;6.382;2022-11-15T15:31:07;2.80;;;2.40;;
17854;SDS011;9053;53.358;6.382;2022-11-15T15:33:37;2.80;;;2.13;;
17854;SDS011;9053;53.358;6.382;2022-11-15T15:36:08;3.08;;;2.50;;
17854;SDS011;9053;53.358;6.382;2022-11-15T15:38:43;3.47;;;2.77;;
17854;SDS011;9053;53.358;6.382;2022-11-15T15:41:13;3.50;;;2.80;;
17854;SDS011;9053;53.358;6.382;2022-11-15T15:43:45;3.50;;;2.80;;
17854;SDS011;9053;53.358;6.382;2022-11-15T15:46:15;4.53;;;3.17;;
17854;SDS011;9053;53.358;6.382;2022-11-15T15:48:46;5.17;;;3.07;;
17854;SDS011;9053;53.358;6.382;2022-11-15T15:51:16;3.67;;;2.87;;
17854;SDS011;9053;53.358;6.382;2022-11-15T15:53:49;4.20;;;3.20;;
17854;SDS011;9053;53.358;6.382;2022-11-15T15:56:23;4.23;;;3.03;;
17854;SDS011;9053;53.358;6.382;2022-11-15T15:58:54;4.13;;;3.20;;
17854;SDS011;9053;53.358;6.382;2022-11-15T16:01:24;6.60;;;3.40;;
17854;SDS011;9053;53.358;6.382;2022-11-15T16:03:54;4.50;;;2.90;;
17854;SDS011;9053;53.358;6.382;2022-11-15T16:06:34;5.65;;;3.70;;